Tiempo atmosférico en la estación meteorológica de Jaén, Jaén (582 m.)



Fecha
DESCASC
Temp. máxima en grados centígrados (hora)
DESCASC
Temp. mínima en grados centígrados (hora)
DESCASC
Temp. media en grados centígrados
DESCASC
Racha de viento máxima en m/sg (hora)
DESCASC
Velocidad máxima media en intervalos de 10 minutos(hora)
DESCASC
Precipitaciones diarias en mm
DESCASC
Precipitaciones de 00:00 a 06:00 en mm
DESCASC
Precipitaciones de 06:00 a 12:00 en mm
DESCASC
Precipitaciones de 12:00 a 18:00 en mm
DESCASC
Precipitaciones de 18:00 a 24:00 en mm
DESCASC
22-08-2019 34.9 (17:20) 21.4 (07:40) 28.2 11.11 (21:40) 6.39 (21:40) 0 0 0 0 0
21-08-2019 32.6 (18:40) 21.1 (07:50) 26.8 8.61 (03:20) 4.72 (23:10) 0 0 0 0 0
20-08-2019 34 (17:40) 20 (07:30) 27 7.78 (17:50) 4.44 (01:30) 0 0 0 0 0
19-08-2019 34.8 (16:20) 20.1 (07:40) 27.4 11.67 (16:40) 6.67 (16:40) 0 0 0 0 0
18-08-2019 36.2 (16:50) 23.3 (00:00) 29.8 11.67 (19:00) 6.39 (14:40) 0 0 0 0 0
17-08-2019 38.5 (17:40) 22.7 (00:00) 30.6 8.89 (15:50) 4.72 (19:10) 0 0 0 0 0
16-08-2019 37.1 (16:50) 22.9 (00:00) 30 10.56 (17:20) 5.83 (16:30) 0 0 0 0 0
15-08-2019 36.6 (17:10) 21.9 (00:00) 29.2 7.5 (16:10) 4.17 (19:10) 0 0 0 0 0
14-08-2019 34.8 (17:00) 19.9 (00:00) 27.3 8.89 (16:30) 4.72 (16:10) 0 0 0 0 0
13-08-2019 33.5 (17:40) 20.5 (00:00) 27 8.33 (15:40) 4.72 (15:10) 0 0 0 0 0
12-08-2019 31.7 (17:50) 18.8 (00:00) 25.3 6.67 (17:00) 3.61 (17:00) 0 0 0 0 0
11-08-2019 32.1 (17:40) 21.1 (00:00) 26.6 12.22 (14:30) 7.22 (14:30) 0 0 0 0 0
10-08-2019 35.2 (17:30) 20.9 (00:00) 28.1 9.72 (00:30) 6.11 (00:30) 0 0 0 0 0
09-08-2019 34.9 (16:50) 20.3 (00:00) 27.6 12.22 (01:50) 6.67 (01:50) 0 0 0 0 0
08-08-2019 37.4 (17:40) 21.5 (00:00) 29.5 10.28 (17:00) 6.11 (17:00) 0 0 0 0 0
07-08-2019 33.3 (16:20) 21 (00:00) 27.1 8.33 (17:20) 5.28 (17:20) 0 0 0 0 0
06-08-2019 37.4 (17:00) 21 (00:00) 29.2 11.11 (18:20) 6.11 (17:00) 0 0 0 0 0
05-08-2019 37.1 (16:50) 21.3 (00:00) 29.2 10.28 (17:50) 5.83 (22:30) 0 0 0 0 0
04-08-2019 36.5 (17:30) 21.6 (00:00) 29.1 11.39 (18:40) 5.83 (17:50) 0 0 0 0 0
03-08-2019 36.3 (15:50) 21.5 (00:00) 28.9 11.67 (17:00) 5.83 (17:00) 0 0 0 0 0
02-08-2019 36.7 (16:50) 21.7 (00:00) 29.2 11.39 (18:00) 5.83 (17:20) 0 0 0 0 0
01-08-2019 34 (17:40) 21.5 (00:00) 27.8 8.89 (18:40) 5.28 (18:40) 0 0 0 0 0
31-07-2019 36.2 (16:50) 23.8 (00:00) 30 8.89 (03:50) 5.56 (04:50) 0 0 0 0 0
30-07-2019 35.4 (17:10) 20.9 (00:00) 28.2 10 (00:20) 6.11 (00:10) 0 0 0 0 0
29-07-2019 33.3 (19:20) 19.5 (00:00) 26.4 10.28 (16:50) 6.11 (16:50) 0 0 0 0 0
28-07-2019 31.4 (18:00) 19.1 (00:00) 25.3 9.72 (19:40) 5.83 (19:20) 0 0 0 0 0
27-07-2019 27.6 (17:20) 18.7 (00:00) 23.2 12.78 (19:40) 6.39 (13:20) 0 0 0 0 0
26-07-2019 30.8 (16:20) 21.7 (00:00) 26.3 12.78 (16:40) 6.39 (13:20) 0 0 0 0 0

Gráficas

Temp. máximas Temp. mínimas Temp. medias Precipitaciones Rachas de viento máximas Velocidades máximas media en intervalos de 10 minutos

Datos horarios

Fecha y hora oficial Temperatura (ºC) Velocidad del viento (km/h) Dirección del viento Racha (km/h) Dirección de racha Precipitación (mm) Presión (hPa) Tendencia (hPa) Humedad (%)
2019-08-24 23:00:00 29.2 6 Sur 24 Sudeste 0 950.1 1.3 31
2019-08-24 22:00:00 29.9 9 Sudoeste 14 Oeste 0 949.1 0 21
2019-08-24 21:00:00 30.7 6 Sudoeste 10 Oeste 0 948.8 -0.6 22
2019-08-24 20:00:00 33.6 3 Noroeste 17 Norte 0 948.8 -0.9 19
2019-08-24 19:00:00 34.1 9 Norte 19 Norte 0 949.1 -1.2 19
2019-08-24 18:00:00 34.9 11 Norte 23 Norte 0 949.4 -1.5 18
2019-08-24 17:00:00 35.2 6 Nordeste 18 Norte 0 949.7 -1.8 19
2019-08-24 16:00:00 34.8 9 Norte 19 Norte 0 950.3 -1.7 20
2019-08-24 15:00:00 34.1 6 Nordeste 14 Nordeste 0 950.9 -1.5 23
2019-08-24 14:00:00 32.2 6 Este 14 Este 0 951.5 -1 27
2019-08-24 13:00:00 30.4 8 Norte 17 Norte 0 952 -0.3 32
2019-08-24 12:00:00 28.9 6 Nordeste 15 Este 0 952.4 0.2 35
2019-08-24 11:00:00 26.8 7 Este 17 Sudeste 0 952.5 0.4 40
2019-08-24 10:00:00 24.9 10 Este 19 Este 0 952.3 0.4 43
2019-08-24 09:00:00 23 10 Este 15 Este 0 952.2 0.3 49
2019-08-24 08:00:00 21.1 0 Calma 12 Sur 0 952.1 0.3 53
2019-08-24 07:00:00 21 4 Sudeste 9 Sudeste 0 951.9 0.2 53
2019-08-24 06:00:00 21.3 3 Sur 7 Sur 0 951.9 0.5 52
2019-08-24 05:00:00 22.6 5 Sudoeste 12 Sudeste 0 951.8 0.2 48
2019-08-24 04:00:00 24.9 7 Sur 27 Sudeste 0 951.7 0.5 46
2019-08-24 03:00:00 25.6 17 Sur 28 Sur 0 951.4 0.2 45
2019-08-24 02:00:00 26.3 14 Sudeste 29 Sur 0 951.6 1.3 44
2019-08-24 01:00:00 27.2 13 Sur 24 Sur 0 951.2 1.5 41
2019-08-24 00:00:00 27.8 8 Sudoeste 27 Sudeste 0 951.2 1.8 33
2019-08-23 23:00:00 28.7 13 Sur 24 Sur 0 950.3 1 34
2019-08-23 22:00:00 28.1 3 Sudoeste 8 Sudoeste 0 949.7 0.2 25
2019-08-23 21:00:00 30.7 3 Sudoeste 15 Nordeste 0 949.4 -0.3 22
2019-08-23 20:00:00 33 4 Nordeste 14 Este 0 949.3 -0.7 19
2019-08-23 19:00:00 33.8 5 Nordeste 20 Nordeste 0 949.5 -0.9 19
2019-08-23 18:00:00 34.8 12 Norte 22 Nordeste 0 949.7 -1.5 18
2019-08-23 17:00:00 34.8 6 Sudeste 17 Sudeste 0 950 -1.8 20
2019-08-23 16:00:00 34.7 4 Noroeste 19 Norte 0 950.4 -1.8 20
2019-08-23 15:00:00 33.6 5 Este 15 Noroeste 0 951.2 -1.5 22
2019-08-23 14:00:00 32.6 7 Norte 16 Norte 0 951.8 -0.9 23
2019-08-23 13:00:00 31.6 8 Este 19 Este 0 952.2 -0.3 20
2019-08-23 12:00:00 30.1 9 Este 29 Sudeste 0 952.7 0.4 23
2019-08-23 11:00:00 27.7 15 Sudeste 36 Sudeste 0 952.7 0.8 27
2019-08-23 10:00:00 26.1 17 Sudeste 36 Sudeste 0 952.5 1.1 27
2019-08-23 09:00:00 24.4 15 Sudeste 31 Sudeste 0 952.3 0.7 30
2019-08-23 08:00:00 24.3 15 Sudeste 28 Sudeste 0 951.9 0.3 28
2019-08-23 07:00:00 24.6 13 Sudeste 31 Este 0 951.4 -0.3 27
2019-08-23 06:00:00 24.2 12 Sudeste 32 Sudeste 0 951.6 -0.2 35
2019-08-23 05:00:00 24.6 15 Sudeste 33 Sudeste 0 951.6 -0.1 37
2019-08-23 04:00:00 24.7 19 Sudeste 53 Sudeste 0 951.7 0.1 43
2019-08-23 03:00:00 25.3 26 Sudeste 47 Sudeste 0 951.8 0.3 45
2019-08-23 02:00:00 25.9 27 Sudeste 51 Sudeste 0 951.7 0.8 45
2019-08-23 01:00:00 26.5 23 Sudeste 42 Sudeste 0 951.6 1.3 45
2019-08-23 00:00:00 27.3 18 Sudeste 32 Sudeste 0 951.5 1.9 45
2019-08-22 23:00:00 28.9 13 Sur 36 Sur 0 950.9 1.7 39
2019-08-22 22:00:00 29.9 18 Sudeste 40 Este 0 950.3 1.1 35
2019-08-22 21:00:00 31.6 12 Sudeste 20 Sudeste 0 949.6 0 30
2019-08-22 20:00:00 33.3 6 Nordeste 19 Noroeste 0 949.2 -0.8 24
2019-08-22 19:00:00 34 6 Nordeste 20 Nordeste 0 949.2 -1.2 24
2019-08-22 18:00:00 34.7 8 Norte 21 Este 0 949.6 -1.5 24
2019-08-22 17:00:00 34.5 8 Norte 24 Nordeste 0 950 -1.9 25
2019-08-22 16:00:00 34.1 9 Este 21 Este 0 950.4 -2 26
2019-08-22 15:00:00 33.2 8 Nordeste 18 Nordeste 0 951.1 -1.8 31
2019-08-22 14:00:00 31.4 6 Este 23 Sudeste 0 951.9 -1 37
2019-08-22 13:00:00 30.2 5 Este 18 Nordeste 0 952.4 -0.5 41
2019-08-22 12:00:00 28.2 6 Este 15 Nordeste 0 952.9 -0.2 47
2019-08-22 11:00:00 26.6 6 Sudeste 16 Sudeste 0 952.9 0.3 52
2019-08-22 10:00:00 24.9 8 Sudeste 16 Sudeste 0 952.9 0.7 58
2019-08-22 09:00:00 23.2 4 Este 7 Este 0 953.1 1.2 66
2019-08-22 08:00:00 21.4 4 Sur 6 Sur 0 952.6 0.3 72
2019-08-22 07:00:00 22.1 2 Nordeste 13 Sur 0 952.2 0 67
2019-08-22 06:00:00 22.9 9 Sur 19 Sur 0 951.9 -0.5 64
2019-08-22 05:00:00 23.4 6 Sudoeste 22 Sur 0 952.3 0.2 62
2019-08-22 04:00:00 24.2 16 Sur 26 Sur 0 952.2 0.2 60
2019-08-22 03:00:00 24.6 4 Sur 23 Sur 0 952.4 0.7 56
2019-08-22 02:00:00 25.2 14 Sur 33 Sur 0 952.1 0.7 58
2019-08-22 01:00:00 25.8 19 Sur 35 Sur 0 952 1 56
2019-08-22 00:00:00 26.2 17 Sudeste 29 Este 0 951.7 1.4 54
2019-08-21 23:00:00 27.5 15 Sudeste 25 Sudeste 0 951.4 1.9 47
2019-08-21 22:00:00 28 3 Sudeste 17 Nordeste 0 951 1.9 44
2019-08-21 21:00:00 29.2 7 Nordeste 30 Noroeste 0 950.3 1.1 42
2019-08-21 20:00:00 31.4 12 Noroeste 26 Noroeste 0 949.5 0 32
2019-08-21 19:00:00 32.2 14 Noroeste 28 Noroeste 0 949.1 -0.8 30
2019-08-21 18:00:00 32.3 13 Noroeste 27 Noroeste 0 949.2 -1.3 32
2019-08-21 17:00:00 32.1 15 Noroeste 30 Noroeste 0 949.5 -1.6 34
2019-08-21 16:00:00 31.4 9 Noroeste 21 Norte 0 949.9 -1.7 36
2019-08-21 15:00:00 31.9 10 Noroeste 24 Norte 0 950.5 -1.6 36
2019-08-21 14:00:00 30.5 8 Noroeste 26 Noroeste 0 951.1 -1.3 39
2019-08-21 13:00:00 30.4 5 Norte 13 Sudeste 0 951.6 -0.2 40
2019-08-21 12:00:00 27.1 6 Este 18 Norte 0 952.1 0.1 45
2019-08-21 11:00:00 25.9 6 Norte 19 Este 0 952.4 0.6 43
2019-08-21 10:00:00 24.7 13 Este 20 Este 0 951.8 0.5 44
2019-08-21 09:00:00 23.3 6 Este 9 Sudeste 0 952 0.8 37
2019-08-21 08:00:00 21.1 2 Este 6 Sur 0 951.8 0.7 37
2019-08-21 07:00:00 21.7 2 Sur 8 Sudeste 0 951.3 0.1 38
2019-08-21 06:00:00 22.8 6 Sudeste 28 Sudeste 0 951.2 -0.1 39
2019-08-21 05:00:00 24.7 15 Sudeste 26 Sudeste 0 951.1 0 61
2019-08-21 04:00:00 24.7 13 Sudeste 31 Este 0 951.2 0.2 60
2019-08-21 03:00:00 25.2 4 Sudeste 22 Sur 0 951.3 0.7 58
2019-08-21 02:00:00 25.9 15 Sur 24 Sur 0 951.1 1 54
2019-08-21 01:00:00 26.7 11 Sur 22 Sur 0 951 1.5 38
2019-08-21 00:00:00 27 13 Sur 19 Sur 0 950.6 1.7 19
2019-08-20 23:00:00 28.7 12 Sudoeste 20 Sudoeste 0 950.1 1.5 17
2019-08-20 22:00:00 28.9 10 Oeste 18 Oeste 0 949.5 0.9 17
2019-08-20 21:00:00 30.4 11 Oeste 20 Noroeste 0 948.9 0.2 16
2019-08-20 20:00:00 32.3 12 Noroeste 23 Noroeste 0 948.6 -0.3 14
2019-08-20 19:00:00 33.3 11 Noroeste 25 Noroeste 0 948.6 -0.7 12
2019-08-20 18:00:00 33.9 10 Noroeste 28 Noroeste 0 948.7 -1.2 12
2019-08-20 17:00:00 33.6 14 Noroeste 25 Noroeste 0 948.9 -1.4 14
2019-08-20 16:00:00 33.3 6 Nordeste 24 Norte 0 949.3 -1.5 18
2019-08-20 15:00:00 33.1 10 Norte 21 Noroeste 0 949.9 -1.1 20
2019-08-20 14:00:00 31.3 6 Norte 17 Norte 0 950.3 -0.4 22
2019-08-20 13:00:00 29.4 5 Este 12 Nordeste 0 950.8 0.6 28
2019-08-20 12:00:00 26.3 3 Este 9 Norte 0 951 1.5 33
2019-08-20 11:00:00 25.8 4 Norte 14 Norte 0 950.7 1.3 33
2019-08-20 10:00:00 23.6 9 Noroeste 15 Noroeste 0 950.2 1.1 38
2019-08-20 09:00:00 23.2 4 Nordeste 9 Este 0 949.5 0.6 41
2019-08-20 08:00:00 20.2 3 Sudoeste 6 Sur 0 949.4 0.7 48
2019-08-20 07:00:00 20.5 4 Oeste 8 Oeste 0 949.1 0.4 46
2019-08-20 06:00:00 21.3 4 Sur 14 Oeste 0 948.9 0.1 44
2019-08-20 05:00:00 21.7 2 Sudoeste 12 Norte 0 948.7 -0.5 45
2019-08-20 04:00:00 22.9 3 Sur 11 Sur 0 948.7 -0.7 43
2019-08-20 03:00:00 23.8 4 Oeste 12 Norte 0 948.8 -0.3 41
2019-08-20 02:00:00 26.3 5 Norte 26 Oeste 0 949.2 0.4 35
2019-08-20 01:00:00 26.3 11 Oeste 23 Oeste 0 949.4 1.3 40
2019-08-20 00:00:00 26.9 5 Noroeste 9 Noroeste 0 949.1 1.5 33
2019-08-19 23:00:00 28.6 6 Sur 30 Oeste 0 948.8 1.5 30
2019-08-19 22:00:00 29.1 14 Oeste 28 Oeste 0 948.1 0.6 28
2019-08-19 21:00:00 30.8 18 Oeste 33 Oeste 0 947.6 0 23
2019-08-19 20:00:00 32.6 16 Noroeste 34 Noroeste 0 947.3 -0.4 22
2019-08-19 19:00:00 33.8 16 Noroeste 32 Noroeste 0 947.5 -0.6 18
2019-08-19 18:00:00 34.2 17 Noroeste 39 Noroeste 0 947.6 -1 19
2019-08-19 17:00:00 34.5 21 Noroeste 42 Noroeste 0 947.7 -1.4 23
2019-08-19 16:00:00 34.1 21 Noroeste 36 Noroeste 0 948.1 -1.5 23
2019-08-19 15:00:00 33.9 14 Norte 27 Norte 0 948.6 -1.3 26
2019-08-19 14:00:00 32.8 8 Noroeste 24 Noroeste 0 949.1 -1 30
2019-08-19 13:00:00 32.2 6 Nordeste 19 Norte 0 949.6 -0.3 32
2019-08-19 12:00:00 29.7 6 Norte 14 Norte 0 949.9 0.2 34
2019-08-19 11:00:00 26.9 4 Nordeste 11 Norte 0 950.1 0.7 37
2019-08-19 10:00:00 24.8 4 Nordeste 9 Nordeste 0 949.9 0.7 39
2019-08-19 09:00:00 22.5 3 Nordeste 6 Nordeste 0 949.7 0.9 43
2019-08-19 08:00:00 20.4 3 Sur 7 Oeste 0 949.4 0.4 48
2019-08-19 07:00:00 21 2 Noroeste 6 Sur 0 949.2 0 46
2019-08-19 06:00:00 21.5 0 Calma 9 Noroeste 0 948.8 -0.6 43
2019-08-19 05:00:00 22.6 3 Oeste 8 Sur 0 949 -0.3 39
2019-08-19 04:00:00 23.2 4 Sur 6 Sudoeste 0 949.2 -0.2 39
2019-08-19 03:00:00 25.1 3 Sudoeste 15 Oeste 0 949.4 0.1 35
2019-08-19 02:00:00 27.6 12 Oeste 32 Oeste 0 949.3 0.7 31
2019-08-19 01:00:00 27.9 14 Oeste 38 Oeste 0 949.4 1.6 27
2019-08-19 00:00:00 28.5 16 Oeste 35 Oeste 0 949.3 2 30
2019-08-18 23:00:00 29.5 18 Oeste 35 Oeste 0 948.6 1.8 32
2019-08-18 22:00:00 29.9 11 Oeste 26 Oeste 0 947.8 1 28
2019-08-18 21:00:00 31.5 11 Oeste 32 Noroeste 0 947.3 0.4 26
2019-08-18 20:00:00 33.5 18 Oeste 37 Noroeste 0 946.8 -0.4 23
2019-08-18 19:00:00 34.8 18 Oeste 42 Noroeste 0 946.8 -0.7 20
2019-08-18 18:00:00 35.9 17 Noroeste 39 Noroeste 0 946.9 -0.9 18
2019-08-18 17:00:00 35.9 20 Noroeste 40 Norte 0 947.2 -1.1 19
2019-08-18 16:00:00 35.8 17 Noroeste 35 Noroeste 0 947.5 -1.3 19
2019-08-18 15:00:00 35.3 17 Noroeste 36 Noroeste 0 947.8 -1.1 19
2019-08-18 14:00:00 34.2 21 Noroeste 36 Noroeste 0 948.3 -0.5 21
2019-08-18 13:00:00 33.8 15 Noroeste 28 Noroeste 0 948.8 0.1 22
2019-08-18 12:00:00 32.9 8 Norte 13 Norte 0 948.9 0.5 25
2019-08-18 11:00:00 30.8 4 Sudeste 8 Sudeste 0 948.8 0.7 27
2019-08-18 10:00:00 27.9 5 Norte 10 Noroeste 0 948.7 1 32
2019-08-18 09:00:00 26 6 Noroeste 9 Noroeste 0 948.4 0.8 34
2019-08-18 08:00:00 23.6 5 Oeste 8 Oeste 0 948.1 0.3 39
2019-08-18 07:00:00 23.6 3 Sur 7 Sudoeste 0 947.7 -0.3 38
2019-08-18 06:00:00 24.4 6 Sudoeste 8 Oeste 0 947.6 -0.8 36
2019-08-18 05:00:00 25.6 2 Sudoeste 10 Oeste 0 947.8 -1 34
2019-08-18 04:00:00 27.9 4 Noroeste 18 Sudoeste 0 948 -0.5 30
2019-08-18 03:00:00 27.5 9 Sur 16 Sudeste 0 948.4 0.3 30
2019-08-18 02:00:00 29 3 Este 14 Sudoeste 0 948.8 0.9 28
2019-08-18 01:00:00 30.8 7 Sudoeste 20 Oeste 0 948.5 1.1 24
2019-08-18 00:00:00 31.5 8 Sudoeste 26 Oeste 0 948.1 1.2 23
2019-08-17 23:00:00 32.2 13 Oeste 25 Oeste 0 947.9 1.4 21
2019-08-17 22:00:00 32.9 12 Oeste 27 Sudoeste 0 947.4 0.6 21
2019-08-17 21:00:00 34.6 9 Oeste 23 Oeste 0 946.9 -0.4 19
2019-08-17 20:00:00 36.5 15 Noroeste 29 Noroeste 0 946.5 -1.1 17
2019-08-17 19:00:00 37.5 15 Noroeste 29 Noroeste 0 946.8 -1.5 16
2019-08-17 18:00:00 38 10 Norte 28 Noroeste 0 947.3 -1.8 17
2019-08-17 17:00:00 38 8 Nordeste 23 Norte 0 947.6 -2.3 18
2019-08-17 16:00:00 37.3 6 Sudeste 32 Noroeste 0 948.3 -2.1 20
2019-08-17 15:00:00 36.3 9 Norte 20 Noroeste 0 949.1 -1.9 22
2019-08-17 14:00:00 35.3 9 Norte 16 Norte 0 949.9 -1.3 23
2019-08-17 13:00:00 33.6 5 Nordeste 18 Norte 0 950.4 -0.8 26
2019-08-17 12:00:00 32.1 5 Norte 12 Norte 0 951 -0.2 27
2019-08-17 11:00:00 30.6 6 Este 17 Este 0 951.2 0.1 29
2019-08-17 10:00:00 28.8 5 Este 11 Este 0 951.2 0.3 32
2019-08-17 09:00:00 26 4 Norte 11 Sudeste 0 951.2 0.7 38
2019-08-17 08:00:00 23.9 8 Sur 12 Sur 0 951.1 0.6 40
2019-08-17 07:00:00 22.9 4 Sur 6 Sur 0 950.9 0.5 42
2019-08-17 06:00:00 24.1 4 Este 6 Sur 0 950.5 -0.2 39
2019-08-17 05:00:00 25.4 2 Sur 9 Norte 0 950.5 -0.5 36
2019-08-17 04:00:00 26.4 3 Sudoeste 7 Oeste 0 950.4 -0.5 34
2019-08-17 03:00:00 27.8 3 Este 24 Oeste 0 950.7 0.2 31
2019-08-17 02:00:00 29.2 8 Sudoeste 27 Sudoeste 0 951 0.7 30
2019-08-17 01:00:00 30.1 9 Oeste 27 Sudoeste 0 950.9 1 28
2019-08-17 00:00:00 31.2 11 Oeste 25 Oeste 0 950.5 1.1 26
2019-08-16 23:00:00 31.8 14 Oeste 28 Sudoeste 0 950.3 1.3 24
2019-08-16 22:00:00 31.6 9 Oeste 16 Oeste 0 949.9 0.9 24
2019-08-16 21:00:00 33.6 9 Oeste 27 Oeste 0 949.4 0.2 21
2019-08-16 20:00:00 35.2 15 Noroeste 30 Noroeste 0 949 -0.8 20
2019-08-16 19:00:00 36.1 13 Noroeste 34 Noroeste 0 949 -1.3 20
2019-08-16 18:00:00 36.2 18 Noroeste 38 Norte 0 949.2 -1.6 20
2019-08-16 17:00:00 36.7 14 Noroeste 35 Noroeste 0 949.8 -1.6 20
2019-08-16 16:00:00 36.5 13 Noroeste 33 Noroeste 0 950.3 -1.6 21
2019-08-16 15:00:00 35.9 13 Noroeste 26 Norte 0 950.8 -1.4 22
2019-08-16 14:00:00 35 10 Norte 25 Norte 0 951.4 -1 24
2019-08-16 13:00:00 33.3 10 Norte 19 Nordeste 0 951.9 -0.6 28
2019-08-16 12:00:00 31 6 Nordeste 10 Norte 0 952.2 0.1 30
2019-08-16 11:00:00 28.7 6 Este 13 Este 0 952.4 0.6 35
2019-08-16 10:00:00 26.4 4 Nordeste 7 Nordeste 0 952.5 1 36
2019-08-16 09:00:00 25.4 4 Norte 8 Norte 0 952.1 0.7 39
2019-08-16 08:00:00 23.1 2 Sudoeste 9 Sudeste 0 951.8 0.5 42
2019-08-16 07:00:00 23.3 5 Sudeste 8 Sudeste 0 951.5 0.2 41
2019-08-16 06:00:00 23.7 3 Sur 7 Oeste 0 951.4 0.3 40
2019-08-16 05:00:00 25 2 Oeste 9 Sur 0 951.3 0 37
2019-08-16 04:00:00 26.1 5 Sur 13 Norte 0 951.3 0.2 34
2019-08-16 03:00:00 27.3 4 Sudoeste 13 Norte 0 951.1 0.2 32
2019-08-16 02:00:00 29.1 6 Sudoeste 31 Oeste 0 951.3 0.5 30
2019-08-16 01:00:00 30.5 17 Oeste 30 Oeste 0 951.1 0.9 25
2019-08-16 00:00:00 31.2 11 Oeste 24 Sudoeste 0 950.9 1 23
2019-08-15 23:00:00 31.8 10 Oeste 18 Oeste 0 950.8 1.2 19
2019-08-15 22:00:00 31.9 9 Sudoeste 15 Oeste 0 950.2 0.6 19
2019-08-15 21:00:00 32.9 8 Oeste 13 Oeste 0 949.9 0.1 19
2019-08-15 20:00:00 35.2 9 Noroeste 26 Noroeste 0 949.6 -0.6 18
2019-08-15 19:00:00 35.6 15 Noroeste 27 Noroeste 0 949.6 -1.1 18
2019-08-15 18:00:00 36.5 9 Noroeste 27 Noroeste 0 949.8 -1.4 19
2019-08-15 17:00:00 36.4 12 Norte 27 Norte 0 950.2 -1.5 18
2019-08-15 16:00:00 35.9 10 Norte 23 Norte 0 950.7 -1.7 20
2019-08-15 15:00:00 35.2 10 Norte 21 Noroeste 0 951.2 -1.5 23
2019-08-15 14:00:00 33.8 9 Noroeste 22 Norte 0 951.7 -1 26
2019-08-15 13:00:00 32.6 10 Norte 19 Norte 0 952.4 -0.4 27
2019-08-15 12:00:00 30.7 5 Nordeste 11 Norte 0 952.7 0 28
2019-08-15 11:00:00 28.2 4 Nordeste 8 Norte 0 952.7 0.2 34
2019-08-15 10:00:00 25.8 4 Norte 8 Nordeste 0 952.8 0.7 41
2019-08-15 09:00:00 24.4 2 Nordeste 6 Sudeste 0 952.7 1 43
2019-08-15 08:00:00 22.2 5 Sudeste 7 Sudeste 0 952.5 0.9 44
2019-08-15 07:00:00 22.4 4 Sudoeste 9 Oeste 0 952.1 0.6 42
2019-08-15 06:00:00 22.7 3 Oeste 9 Sudoeste 0 951.7 0.2 41
2019-08-15 05:00:00 23.9 2 Sur 6 Nordeste 0 951.6 -0.2 38
2019-08-15 04:00:00 25.7 5 Norte 9 Nordeste 0 951.5 -0.4 32
2019-08-15 03:00:00 27.7 7 Sudoeste 17 Oeste 0 951.5 -0.4 27
2019-08-15 02:00:00 28.3 9 Oeste 18 Oeste 0 951.8 0.2 30
2019-08-15 01:00:00 28.7 11 Oeste 21 Oeste 0 951.9 0.9 26
2019-08-15 00:00:00 28 7 Sudoeste 12 Sur 0 951.9 1.2 24
2019-08-14 23:00:00 28.5 9 Sudoeste 13 Sudoeste 0 951.6 1.1 25
2019-08-14 22:00:00 30 7 Sudoeste 15 Sudoeste 0 951 0.2 25
2019-08-14 21:00:00 31.3 6 Sudoeste 16 Noroeste 0 950.7 -0.2 22
2019-08-14 20:00:00 33.3 10 Noroeste 24 Noroeste 0 950.5 -0.7 20
2019-08-14 19:00:00 33.8 14 Noroeste 24 Norte 0 950.8 -0.9 20
2019-08-14 18:00:00 34.3 12 Noroeste 31 Norte 0 950.9 -1.2 20
2019-08-14 17:00:00 34.7 10 Oeste 32 Noroeste 0 951.2 -1.5 20
2019-08-14 16:00:00 33.8 12 Noroeste 30 Noroeste 0 951.7 -1.7 22
2019-08-14 15:00:00 33.4 12 Noroeste 25 Noroeste 0 952.1 -1.7 26
2019-08-14 14:00:00 31.8 5 Nordeste 15 Norte 0 952.7 -1.3 30
2019-08-14 13:00:00 30.2 6 Nordeste 15 Norte 0 953.4 -0.4 35
2019-08-14 12:00:00 28.1 5 Este 10 Este 0 953.8 0.3 40
2019-08-14 11:00:00 26.3 5 Este 12 Este 0 954 0.8 45
2019-08-14 10:00:00 24.2 4 Nordeste 11 Este 0 953.8 1 50
2019-08-14 09:00:00 23 5 Este 10 Este 0 953.5 1.1 48
2019-08-14 08:00:00 20 2 Sudeste 7 Sudoeste 0 953.2 0.9 54
2019-08-14 07:00:00 20.6 6 Sudoeste 9 Sudoeste 0 952.8 0.5 50
2019-08-14 06:00:00 21 2 Oeste 5 Oeste 0 952.4 0.4 48
2019-08-14 05:00:00 21.9 3 Sudoeste 9 Sudoeste 0 952.3 0.3 43
2019-08-14 04:00:00 23.1 6 Sudoeste 12 Oeste 0 952.3 0.7 39
2019-08-14 03:00:00 24.9 3 Nordeste 15 Nordeste 0 952 0.5 39
2019-08-14 02:00:00 26.5 5 Sur 28 Oeste 0 952 0.8 38
2019-08-14 01:00:00 27.6 13 Oeste 21 Oeste 0 951.6 1 37
2019-08-14 00:00:00 28.1 12 Sudoeste 19 Oeste 0 951.5 1.5 25
2019-08-13 23:00:00 28 10 Oeste 15 Oeste 0 951.2 1.5 17
2019-08-13 22:00:00 28.6 9 Sudoeste 13 Sudoeste 0 950.6 0.9 16
2019-08-13 21:00:00 30.2 9 Oeste 19 Oeste 0 950 0.2 15
2019-08-13 20:00:00 32.2 10 Oeste 25 Norte 0 949.7 -0.4 12
2019-08-13 19:00:00 32.6 14 Noroeste 27 Noroeste 0 949.7 -1.1 11
2019-08-13 18:00:00 32.9 15 Noroeste 25 Noroeste 0 949.8 -1.4 12
2019-08-13 17:00:00 32.9 14 Noroeste 27 Noroeste 0 950.1 -1.5 12
2019-08-13 16:00:00 33 11 Norte 30 Norte 0 950.8 -1 13
2019-08-13 15:00:00 32.1 12 Noroeste 24 Norte 0 951.2 -0.6 16
2019-08-13 14:00:00 31.1 14 Noroeste 22 Norte 0 951.6 0.1 17
2019-08-13 13:00:00 30.3 11 Norte 22 Norte 0 951.8 0.4 25
2019-08-13 12:00:00 28.7 9 Noroeste 15 Norte 0 951.8 0.6 34
2019-08-13 11:00:00 27.7 6 Nordeste 18 Este 0 951.5 1 40
2019-08-13 10:00:00 25.5 10 Este 18 Este 0 951.4 1.4 47
2019-08-13 09:00:00 23.6 5 Noroeste 17 Sudeste 0 951.2 1.5 28
2019-08-13 08:00:00 22.4 9 Sur 21 Sur 0 950.5 0.5 42
2019-08-13 07:00:00 22.6 12 Sur 22 Sur 0 950 0 35
2019-08-13 06:00:00 22 12 Sur 17 Sur 0 949.7 -0.5 30
2019-08-13 05:00:00 20.7 3 Sudoeste 8 Oeste 0 950 -0.7 24
2019-08-13 04:00:00 22.8 4 Sudoeste 10 Nordeste 0 950 -0.7 21
2019-08-13 03:00:00 24.6 3 Nordeste 10 Sur 0 950.2 -0.7 19
2019-08-13 02:00:00 24.9 7 Sur 13 Sudeste 0 950.7 0 18
2019-08-13 01:00:00 24.7 7 Sudeste 14 Este 0 950.7 1.1 19
2019-08-13 00:00:00 24.7 4 Sur 14 Este 0 950.9 2.2 19
2019-08-12 23:00:00 25.3 5 Sur 12 Oeste 0 950.7 2.5 19
2019-08-12 22:00:00 26.2 6 Oeste 19 Noroeste 0 949.6 1.5 17
2019-08-12 21:00:00 27.6 5 Sudoeste 14 Norte 0 948.7 0.5 13
2019-08-12 20:00:00 30.8 9 Norte 16 Norte 0 948.2 -0.5 10
2019-08-12 19:00:00 31.2 5 Nordeste 17 Norte 0 948.1 -1.3 10
2019-08-12 18:00:00 31.4 10 Norte 22 Norte 0 948.2 -2 10
2019-08-12 17:00:00 31.3 13 Norte 24 Norte 0 948.7 -2.1 11
2019-08-12 16:00:00 30.8 8 Este 19 Este 0 949.4 -1.7 13
2019-08-12 15:00:00 29.7 6 Este 17 Este 0 950.2 -1 14
2019-08-12 14:00:00 28.1 8 Nordeste 17 Este 0 950.8 -0.5 19
2019-08-12 13:00:00 26.8 6 Este 18 Este 0 951.1 0.3 22
2019-08-12 12:00:00 25.7 9 Este 18 Este 0 951.2 0.6 23
2019-08-12 11:00:00 24.6 7 Nordeste 13 Este 0 951.3 1.1 24
2019-08-12 10:00:00 22.5 5 Nordeste 8 Nordeste 0 950.8 1 27
2019-08-12 09:00:00 19.8 2 Oeste 6 Noroeste 0 950.6 0.8 32
2019-08-12 08:00:00 19.3 3 Sudoeste 12 Oeste 0 950.2 0.2 32
2019-08-12 07:00:00 19.2 8 Sudoeste 13 Oeste 0 949.8 -0.5 31
2019-08-12 06:00:00 19.3 6 Sudoeste 10 Sudoeste 0 949.8 -1 29
2019-08-12 05:00:00 20.1 6 Sudoeste 15 Oeste 0 950 -1 29
2019-08-12 04:00:00 21 10 Oeste 15 Oeste 0 950.3 -0.8 28
2019-08-12 03:00:00 20.6 7 Sudoeste 11 Sudoeste 0 950.8 -0.2 28
2019-08-12 02:00:00 21.9 2 Sur 16 Oeste 0 951 0.3 26
2019-08-12 01:00:00 23.1 10 Oeste 19 Oeste 0 951.1 1.2 23
2019-08-12 00:00:00 24.9 13 Oeste 24 Oeste 0 951 1.5 19
2019-08-11 23:00:00 26.2 15 Oeste 25 Oeste 0 950.7 1.7 19
2019-08-11 22:00:00 26.6 9 Oeste 19 Oeste 0 949.9 1 21
2019-08-11 21:00:00 28.6 12 Noroeste 23 Noroeste 0 949.5 0.3 18
2019-08-11 20:00:00 29.7 14 Noroeste 30 Noroeste 0 949 -0.7 19
2019-08-11 19:00:00 31.3 14 Noroeste 30 Noroeste 0 948.9 -1.3 17
2019-08-11 18:00:00 31.8 13 Noroeste 34 Oeste 0 949.2 -1.4 15
2019-08-11 17:00:00 31.6 15 Noroeste 36 Noroeste 0 949.7 -1.2 20
2019-08-11 16:00:00 30.9 21 Noroeste 34 Noroeste 0 950.2 -1 20
2019-08-11 15:00:00 29.8 21 Noroeste 44 Noroeste 0 950.6 -0.7 23
2019-08-11 14:00:00 29.9 20 Noroeste 36 Noroeste 0 950.9 -0.3 25
2019-08-11 13:00:00 29.3 14 Noroeste 26 Norte 0 951.2 0.3 28
2019-08-11 12:00:00 28.8 11 Norte 24 Norte 0 951.3 0 29
2019-08-11 11:00:00 26.3 10 Norte 19 Noroeste 0 951.2 0.1 33
2019-08-11 10:00:00 24.5 6 Norte 15 Sudeste 0 950.9 0.3 38
2019-08-11 09:00:00 22.4 4 Sudeste 7 Sudeste 0 951.3 1.1 41
2019-08-11 08:00:00 21.1 5 Sudeste 25 Oeste 0 951.1 1.6 44
2019-08-11 07:00:00 21.6 8 Oeste 18 Oeste 0 950.6 0.9 44
2019-08-11 06:00:00 22.5 4 Oeste 14 Oeste 0 950.2 0.5 43
2019-08-11 05:00:00 23.1 4 Sudeste 9 Sudoeste 0 949.5 -0.9 47
2019-08-11 04:00:00 24.1 4 Sudoeste 11 Noroeste 0 949.7 -0.7 44
2019-08-11 03:00:00 25.3 4 Sur 17 Noroeste 0 949.7 -0.7 44
2019-08-11 02:00:00 26.7 6 Sudoeste 30 Noroeste 0 950.4 0 41
2019-08-11 01:00:00 27.8 15 Oeste 42 Oeste 0 950.4 0.7 41
2019-08-11 00:00:00 28.4 15 Noroeste 26 Oeste 0 950.4 1.2 41
2019-08-10 23:00:00 29.5 11 Oeste 23 Oeste 0 950.4 1.5 37
2019-08-10 22:00:00 29.9 10 Oeste 25 Oeste 0 949.7 0.6 35
2019-08-10 21:00:00 31.8 15 Oeste 30 Noroeste 0 949.2 -0.3 30
2019-08-10 20:00:00 33.5 17 Noroeste 30 Noroeste 0 948.9 -1.1 28
2019-08-10 19:00:00 34.3 18 Noroeste 34 Noroeste 0 949.1 -1.9 29
2019-08-10 18:00:00 34.7 16 Noroeste 35 Noroeste 0 949.5 -2.3 30
2019-08-10 17:00:00 34.3 21 Noroeste 32 Noroeste 0 950 -2.4 30
2019-08-10 16:00:00 33.9 9 Norte 27 Norte 0 951 -1.9 33
2019-08-10 15:00:00 32.2 12 Noroeste 28 Noroeste 0 951.8 -1.5 40
2019-08-10 14:00:00 31.4 10 Noroeste 24 Norte 0 952.4 -0.9 43
2019-08-10 13:00:00 30.4 9 Norte 20 Norte 0 952.9 -0.2 47
2019-08-10 12:00:00 28.3 4 Nordeste 13 Nordeste 0 953.3 0.3 52
2019-08-10 11:00:00 26.4 5 Este 11 Este 0 953.3 0.3 58
2019-08-10 10:00:00 24.4 4 Este 10 Noroeste 0 953.1 0.7 65
2019-08-10 09:00:00 22.7 5 Sudeste 14 Sudeste 0 953 1 66
2019-08-10 08:00:00 21 3 Sur 6 Sur 0 953 1 73
2019-08-10 07:00:00 21.3 3 Sudoeste 9 Norte 0 952.4 0.4 71
2019-08-10 06:00:00 22.3 3 Sur 9 Sur 0 952 -0.1 70
2019-08-10 05:00:00 22.7 4 Sudoeste 8 Sudoeste 0 952 0 67
2019-08-10 04:00:00 23.6 3 Sudeste 9 Sur 0 952 0.2 63
2019-08-10 03:00:00 24.4 4 Oeste 19 Oeste 0 952.1 0.4 58
2019-08-10 02:00:00 26 10 Sudoeste 28 Oeste 0 952 0.7 58
2019-08-10 01:00:00 26.7 15 Oeste 35 Oeste 0 951.8 1.4 52
2019-08-10 00:00:00 27.9 15 Oeste 24 Oeste 0 951.7 1.6 39
2019-08-09 23:00:00 28 3 Sudoeste 17 Sur 0 951.3 1.5 34
2019-08-09 22:00:00 29.5 10 Sudoeste 22 Oeste 0 950.4 0.5 31
2019-08-09 21:00:00 31.2 12 Oeste 26 Noroeste 0 950.1 0.3 31
2019-08-09 20:00:00 32.8 16 Noroeste 33 Noroeste 0 949.8 -0.2 28
2019-08-09 19:00:00 34.3 14 Oeste 32 Oeste 0 949.9 -0.6 24
2019-08-09 18:00:00 34.4 20 Noroeste 37 Noroeste 0 949.8 -1.2 21
2019-08-09 17:00:00 34.7 19 Noroeste 36 Noroeste 0 950 -1.6 20
2019-08-09 16:00:00 34 23 Noroeste 37 Noroeste 0 950.5 -1.4 24
2019-08-09 15:00:00 33.2 20 Noroeste 32 Noroeste 0 951 -0.9 23
2019-08-09 14:00:00 32 17 Noroeste 28 Noroeste 0 951.6 -0.2 25
2019-08-09 13:00:00 30.7 9 Norte 23 Norte 0 951.9 0.1 31
2019-08-09 12:00:00 28.7 3 Nordeste 11 Nordeste 0 951.9 0.4 32
2019-08-09 11:00:00 26.7 4 Nordeste 10 Nordeste 0 951.8 0.6 32
2019-08-09 10:00:00 23.6 6 Norte 10 Norte 0 951.8 0.9 36
2019-08-09 09:00:00 22.3 3 Este 7 Nordeste 0 951.5 0.9 36
2019-08-09 08:00:00 20.6 3 Oeste 7 Este 0 951.2 0.8 41
2019-08-09 07:00:00 20.6 3 Sur 9 Sur 0 950.9 0.6 39
2019-08-09 06:00:00 21.7 5 Sudeste 8 Sur 0 950.6 0.2 34
2019-08-09 05:00:00 23.4 3 Sudeste 12 Sur 0 950.4 0.5 26
2019-08-09 04:00:00 25.8 5 Sudoeste 23 Sudoeste 0 950.3 0.8 22
2019-08-09 03:00:00 26 12 Sur 29 Oeste 0 950.4 1.3 32
2019-08-09 02:00:00 26.7 15 Oeste 44 Oeste 0 949.9 0.9 34
2019-08-09 01:00:00 28.2 4 Sudoeste 19 Oeste 0 949.5 1 23
2019-08-09 00:00:00 28.1 6 Sudoeste 13 Oeste 0 949.1 1.1 21
2019-08-08 23:00:00 29.4 10 Oeste 18 Oeste 0 949 1.3 21
2019-08-08 22:00:00 29.9 9 Oeste 17 Oeste 0 948.5 0.7 19
2019-08-08 21:00:00 32.7 10 Oeste 29 Noroeste 0 948 0.4 17
2019-08-08 20:00:00 34.4 17 Noroeste 33 Noroeste 0 947.7 0.2 16
2019-08-08 19:00:00 36.1 15 Noroeste 37 Noroeste 0 947.8 -0.4 14
2019-08-08 18:00:00 36.9 16 Oeste 34 Noroeste 0 947.6 -1.3 14
2019-08-08 17:00:00 36.8 22 Noroeste 37 Noroeste 0 947.5 -1.9 16
2019-08-08 16:00:00 36.2 10 Noroeste 25 Noroeste 0 948.2 -1.6 20
2019-08-08 15:00:00 34.5 4 Norte 18 Noroeste 0 948.9 -1.2 24
2019-08-08 14:00:00 33 5 Norte 17 Norte 0 949.4 -0.5 26
2019-08-08 13:00:00 32.3 6 Norte 17 Norte 0 949.8 0.1 28
2019-08-08 12:00:00 30.4 9 Norte 14 Norte 0 950.1 0.6 30
2019-08-08 11:00:00 28.4 4 Norte 9 Nordeste 0 949.9 0.5 34
2019-08-08 10:00:00 26.1 5 Norte 8 Nordeste 0 949.7 0.6 38
2019-08-08 09:00:00 24.6 3 Nordeste 6 Norte 0 949.5 0.4 38
2019-08-08 08:00:00 22.2 4 Sur 6 Sur 0 949.4 0.3 46
2019-08-08 07:00:00 21.6 3 Sur 6 Sur 0 949.1 0 45
2019-08-08 06:00:00 22 3 Sudoeste 9 Oeste 0 949.1 0 44
2019-08-08 05:00:00 22.9 4 Oeste 9 Oeste 0 949.1 -0.2 41
2019-08-08 04:00:00 23.8 2 Sudeste 8 Sudeste 0 949.1 -0.1 40
2019-08-08 03:00:00 24.8 3 Sudoeste 8 Sur 0 949.1 -0.1 39
2019-08-08 02:00:00 25.9 5 Sudeste 11 Oeste 0 949.3 0.5 35
2019-08-08 01:00:00 28 8 Oeste 19 Sudoeste 0 949.2 1 33
2019-08-08 00:00:00 27.9 10 Oeste 17 Oeste 0 949.2 1.4 31
2019-08-07 23:00:00 27.9 8 Oeste 12 Oeste 0 948.8 1 31
2019-08-07 22:00:00 28.6 6 Sudoeste 10 Sudoeste 0 948.2 0.3 30
2019-08-07 21:00:00 30.2 4 Oeste 19 Norte 0 947.8 -0.2 27
2019-08-07 20:00:00 31.5 13 Noroeste 20 Noroeste 0 947.8 0.1 25
2019-08-07 19:00:00 32 12 Noroeste 26 Noroeste 0 947.9 -0.2 21
2019-08-07 18:00:00 32.1 14 Noroeste 30 Noroeste 0 948 -0.7 24
2019-08-07 17:00:00 32.4 15 Noroeste 27 Noroeste 0 947.7 -1.3 21
2019-08-07 16:00:00 32.9 14 Noroeste 26 Noroeste 0 948.1 -1.2 23
2019-08-07 15:00:00 31.2 8 Norte 21 Noroeste 0 948.7 -0.6 28
2019-08-07 14:00:00 30.9 8 Noroeste 20 Norte 0 949 -0.1 29
2019-08-07 13:00:00 30.1 6 Norte 13 Norte 0 949.3 0.4 28
2019-08-07 12:00:00 28 5 Norte 9 Norte 0 949.3 1 26
2019-08-07 11:00:00 27 4 Nordeste 9 Norte 0 949.1 1.4 24
2019-08-07 10:00:00 24.7 5 Norte 9 Norte 0 948.9 1.5 26
2019-08-07 09:00:00 23.1 3 Norte 9 Norte 0 948.3 0.9 27
2019-08-07 08:00:00 21.1 5 Sur 8 Sudoeste 0 947.7 0.5 34
2019-08-07 07:00:00 21.7 4 Oeste 9 Sur 0 947.4 0.4 31
2019-08-07 06:00:00 22.3 4 Sur 9 Sur 0 947.4 0.1 29
2019-08-07 05:00:00 23.9 5 Sur 9 Este 0 947.2 -0.4 29
2019-08-07 04:00:00 26.2 7 Sur 23 Sudoeste 0 947 -0.6 27
2019-08-07 03:00:00 25.1 4 Este 19 Sudoeste 0 947.3 -0.2 23
2019-08-07 02:00:00 27 10 Sudoeste 25 Oeste 0 947.6 0.5 21
2019-08-07 01:00:00 28.9 5 Oeste 28 Oeste 0 947.6 1.2 15
2019-08-07 00:00:00 29.7 15 Sudoeste 34 Noroeste 0 947.5 1.7 13
2019-08-06 23:00:00 30.2 15 Oeste 26 Oeste 0 947.1 1.6 18
2019-08-06 22:00:00 30.5 12 Oeste 20 Oeste 0 946.4 0.9 16
2019-08-06 21:00:00 32.9 12 Oeste 29 Oeste 0 945.8 0 14
2019-08-06 20:00:00 35.1 14 Noroeste 34 Noroeste 0 945.5 -0.5 10
2019-08-06 19:00:00 36.2 15 Noroeste 40 Noroeste 0 945.5 -1.5 11
2019-08-06 18:00:00 37 19 Oeste 39 Noroeste 0 945.8 -1.8 13
2019-08-06 17:00:00 37 22 Noroeste 37 Noroeste 0 946 -2.4 14
2019-08-06 16:00:00 36.4 9 Noroeste 26 Norte 0 947 -2.3 15
2019-08-06 15:00:00 35.7 9 Noroeste 22 Noroeste 0 947.6 -1.9 18
2019-08-06 14:00:00 33.4 5 Nordeste 16 Noroeste 0 948.4 -1.2 21
2019-08-06 13:00:00 31.8 7 Norte 13 Norte 0 949.3 -0.3 23
2019-08-06 12:00:00 29.2 4 Este 11 Norte 0 949.5 0.2 26
2019-08-06 11:00:00 27 4 Nordeste 11 Norte 0 949.6 0.4 31
2019-08-06 10:00:00 25.1 5 Este 9 Este 0 949.6 0.6 33
2019-08-06 09:00:00 23.9 4 Norte 8 Este 0 949.3 0.5 36
2019-08-06 08:00:00 21.3 2 Este 7 Oeste 0 949.2 0.2 39
2019-08-06 07:00:00 21.8 3 Oeste 8 Sudoeste 0 949 0.2 34
2019-08-06 06:00:00 22.4 4 Sudeste 8 Sudeste 0 948.8 0.1 34
2019-08-06 05:00:00 23.6 4 Sudeste 14 Sudoeste 0 949 -0.2 31
2019-08-06 04:00:00 25.5 6 Sudoeste 14 Sudoeste 0 948.8 -0.1 27
2019-08-06 03:00:00 28.5 11 Sudoeste 27 Sudoeste 0 948.7 0.3 20
2019-08-06 02:00:00 28.9 12 Oeste 30 Sudoeste 0 949.2 1.4 22
2019-08-06 01:00:00 29 14 Noroeste 30 Oeste 0 948.9 1.6 25
2019-08-06 00:00:00 29.7 4 Este 32 Oeste 0 948.4 1.7 23
2019-08-05 23:00:00 30.9 19 Oeste 34 Oeste 0 947.8 1.3 21
2019-08-05 22:00:00 31.6 19 Oeste 31 Oeste 0 947.3 0.9 24
2019-08-05 21:00:00 33.3 15 Oeste 30 Noroeste 0 946.7 0.3 22
2019-08-05 20:00:00 35.1 19 Noroeste 37 Noroeste 0 946.5 -0.1 19
2019-08-05 19:00:00 36.4 18 Noroeste 35 Sudoeste 0 946.4 -0.8 20
2019-08-05 18:00:00 36.5 18 Noroeste 37 Noroeste 0 946.4 -1.4 20
2019-08-05 17:00:00 37 15 Noroeste 29 Noroeste 0 946.6 -1.8 19
2019-08-05 16:00:00 36.2 9 Noroeste 29 Noroeste 0 947.2 -2.1 20
2019-08-05 15:00:00 35.9 12 Norte 21 Noroeste 0 947.8 -1.8 21
2019-08-05 14:00:00 34.5 10 Norte 18 Norte 0 948.4 -1.3 22
2019-08-05 13:00:00 32.8 8 Norte 14 Norte 0 949.3 -0.3 26
2019-08-05 12:00:00 30.7 5 Nordeste 11 Norte 0 949.6 -0.2 29
2019-08-05 11:00:00 28.5 3 Nordeste 9 Nordeste 0 949.7 0.1 31
2019-08-05 10:00:00 26.6 4 Nordeste 8 Nordeste 0 949.6 0.3 33
2019-08-05 09:00:00 24.7 2 Norte 5 Noroeste 0 949.8 0.6 37
2019-08-05 08:00:00 22 3 Sudeste 5 Sur 0 949.6 0.2 40
2019-08-05 07:00:00 21.8 3 Sudeste 7 Sudoeste 0 949.3 0 40
2019-08-05 06:00:00 22.6 3 Sur 7 Sur 0 949.2 -0.3 41
2019-08-05 05:00:00 24 2 Noroeste 10 Sur 0 949.4 -0.6 34
2019-08-05 04:00:00 25.3 5 Sur 11 Este 0 949.3 -0.7 30
2019-08-05 03:00:00 27.3 6 Sudoeste 23 Sudoeste 0 949.5 0.2 27
2019-08-05 02:00:00 27.4 10 Oeste 23 Oeste 0 950 1 35
2019-08-05 01:00:00 28 13 Oeste 26 Oeste 0 950 1.6 33
2019-08-05 00:00:00 29.3 14 Oeste 26 Oeste 0 949.3 1.5 25
2019-08-04 23:00:00 30 14 Oeste 26 Oeste 0 949 1.7 26
2019-08-04 22:00:00 30.5 14 Oeste 23 Oeste 0 948.4 1.2 23
2019-08-04 21:00:00 32.8 13 Noroeste 35 Noroeste 0 947.8 0.6 21
2019-08-04 20:00:00 34.6 16 Noroeste 36 Norte 0 947.3 -0.1 21
2019-08-04 19:00:00 35.7 17 Noroeste 41 Noroeste 0 947.2 -0.9 20
2019-08-04 18:00:00 35.8 18 Noroeste 36 Noroeste 0 947.2 -1.4 20
2019-08-04 17:00:00 35.7 15 Norte 29 Noroeste 0 947.4 -1.8 20
2019-08-04 16:00:00 35.4 8 Noroeste 22 Noroeste 0 948.1 -1.8 20
2019-08-04 15:00:00 34.8 8 Noroeste 21 Norte 0 948.6 -1.5 22
2019-08-04 14:00:00 33.7 8 Norte 17 Norte 0 949.2 -1 24
2019-08-04 13:00:00 31.9 6 Norte 13 Norte 0 949.9 -0.4 25
2019-08-04 12:00:00 29.6 6 Nordeste 13 Norte 0 950.1 -0.2 28
2019-08-04 11:00:00 27.5 5 Norte 14 Norte 0 950.2 0.4 30
2019-08-04 10:00:00 25.3 4 Nordeste 10 Norte 0 950.3 0.6 33
2019-08-04 09:00:00 23.6 4 Norte 7 Norte 0 950.3 0.9 36
2019-08-04 08:00:00 21.9 3 Sur 12 Sudeste 0 949.8 0.5 38
2019-08-04 07:00:00 22.6 3 Sur 8 Sur 0 949.7 0.5 35
2019-08-04 06:00:00 23.1 5 Sur 7 Sur 0 949.4 0.1 34
2019-08-04 05:00:00 24.8 3 Norte 11 Sudoeste 0 949.3 0.2 31
2019-08-04 04:00:00 26.9 4 Noroeste 30 Sudoeste 0 949.2 0.4 28
2019-08-04 03:00:00 26.6 12 Sudoeste 29 Oeste 0 949.3 0.6 30
2019-08-04 02:00:00 26.1 7 Oeste 12 Oeste 0 949.1 0.8 31
2019-08-04 01:00:00 27.4 2 Oeste 16 Sur 0 948.8 1.2 31
2019-08-04 00:00:00 28.9 5 Noroeste 28 Oeste 0 948.7 1.8 27
2019-08-03 23:00:00 29.7 17 Oeste 29 Oeste 0 948.3 1.6 27
2019-08-03 22:00:00 30.7 14 Oeste 27 Oeste 0 947.6 1 23
2019-08-03 21:00:00 32.5 13 Oeste 30 Noroeste 0 946.9 0 23
2019-08-03 20:00:00 34.2 17 Noroeste 36 Noroeste 0 946.7 -0.6 24
2019-08-03 19:00:00 35.3 17 Noroeste 35 Norte 0 946.6 -1.2 24
2019-08-03 18:00:00 35.7 17 Noroeste 31 Noroeste 0 946.9 -1.4 21
2019-08-03 17:00:00 35.6 21 Noroeste 42 Norte 0 947.3 -1.5 20
2019-08-03 16:00:00 35.4 18 Noroeste 31 Noroeste 0 947.8 -1.5 18
2019-08-03 15:00:00 35.7 8 Noroeste 19 Noroeste 0 948.3 -1.2 17
2019-08-03 14:00:00 33.9 7 Norte 15 Norte 0 948.8 -0.7 18
2019-08-03 13:00:00 32.1 5 Norte 14 Nordeste 0 949.3 -0.4 19
2019-08-03 12:00:00 30.2 5 Norte 10 Norte 0 949.5 -0.3 22
2019-08-03 11:00:00 28.1 5 Este 9 Este 0 949.5 0.1 25
2019-08-03 10:00:00 25.8 5 Este 10 Este 0 949.7 0.8 27
2019-08-03 09:00:00 24.1 4 Este 7 Noroeste 0 949.8 1.2 30
2019-08-03 08:00:00 22 2 Sudoeste 6 Sur 0 949.4 0.7 34
2019-08-03 07:00:00 21.7 5 Sur 10 Sur 0 948.9 0.5 33
2019-08-03 06:00:00 22.4 6 Sur 9 Sur 0 948.6 0.2 31
2019-08-03 05:00:00 23.9 3 Nordeste 8 Oeste 0 948.7 -0.2 29
2019-08-03 04:00:00 24.6 3 Sur 12 Sur 0 948.4 -0.4 28
2019-08-03 03:00:00 25.4 7 Sur 11 Sur 0 948.4 -0.3 26
2019-08-03 02:00:00 26.4 4 Sur 19 Oeste 0 948.9 0.5 24
2019-08-03 01:00:00 27.6 5 Sudoeste 26 Oeste 0 948.8 1.1 23
2019-08-03 00:00:00 29.6 14 Oeste 26 Oeste 0 948.7 1.4 20
2019-08-02 23:00:00 30.5 13 Oeste 22 Oeste 0 948.4 1.5 19
2019-08-02 22:00:00 31 10 Oeste 28 Noroeste 0 947.7 0.7 16
2019-08-02 21:00:00 33.1 14 Oeste 31 Oeste 0 947.3 0.2 16
2019-08-02 20:00:00 35.1 19 Noroeste 32 Noroeste 0 946.9 -0.5 14
2019-08-02 19:00:00 36.1 16 Noroeste 33 Oeste 0 947 -0.9 14
2019-08-02 18:00:00 36.4 18 Noroeste 41 Noroeste 0 947.1 -1.2 15
2019-08-02 17:00:00 36.2 19 Noroeste 33 Noroeste 0 947.4 -1.5 15
2019-08-02 16:00:00 36.1 12 Noroeste 25 Noroeste 0 947.9 -1.3 18
2019-08-02 15:00:00 35.1 9 Noroeste 20 Noroeste 0 948.3 -1.1 22
2019-08-02 14:00:00 33.6 8 Noroeste 18 Noroeste 0 948.9 -0.5 22
2019-08-02 13:00:00 31.8 9 Norte 17 Norte 0 949.2 -0.2 28
2019-08-02 12:00:00 30.3 6 Norte 14 Norte 0 949.4 0.1 32
2019-08-02 11:00:00 27.8 6 Norte 11 Norte 0 949.4 0.5 37
2019-08-02 10:00:00 25.7 5 Norte 10 Norte 0 949.4 0.8 43
2019-08-02 09:00:00 24.1 3 Norte 6 Norte 0 949.3 0.8 45
2019-08-02 08:00:00 22.4 3 Sudoeste 8 Sudeste 0 948.9 0.5 49
2019-08-02 07:00:00 21.9 4 Oeste 9 Noroeste 0 948.6 0.5 47
2019-08-02 06:00:00 23.3 0 Calma 10 Sur 0 948.5 0.2 45
2019-08-02 05:00:00 24.7 7 Sur 14 Oeste 0 948.4 -0.2 42
2019-08-02 04:00:00 27.2 9 Oeste 24 Oeste 0 948.1 -0.2 37
2019-08-02 03:00:00 27.4 14 Oeste 25 Sudoeste 0 948.3 0 36
2019-08-02 02:00:00 27.4 15 Oeste 36 Oeste 0 948.6 0.8 39
2019-08-02 01:00:00 28 18 Oeste 31 Oeste 0 948.3 1.4 41
2019-08-02 00:00:00 28.7 11 Oeste 21 Oeste 0 948.3 2 35
2019-08-01 23:00:00 28.7 9 Oeste 21 Oeste 0 947.8 1.9 40
2019-08-01 22:00:00 29.6 11 Oeste 22 Oeste 0 946.9 1.1 39
2019-08-01 21:00:00 31.7 13 Oeste 28 Noroeste 0 946.3 0.3 35
2019-08-01 20:00:00 33.4 12 Noroeste 29 Noroeste 0 945.9 -0.4 32
2019-08-01 19:00:00 33.6 17 Noroeste 32 Norte 0 945.8 -0.9 32
2019-08-01 18:00:00 33.9 15 Noroeste 28 Norte 0 946 -1.3 33
2019-08-01 17:00:00 33.8 17 Noroeste 28 Norte 0 946.3 -1.5 33
2019-08-01 16:00:00 33.5 14 Norte 28 Norte 0 946.7 -1.5 34
2019-08-01 15:00:00 32.4 9 Noroeste 22 Noroeste 0 947.3 -1.1 38
2019-08-01 14:00:00 31.3 11 Norte 22 Norte 0 947.8 -0.7 41
2019-08-01 13:00:00 29.7 10 Norte 20 Noroeste 0 948.2 -0.2 46
2019-08-01 12:00:00 28.1 8 Norte 16 Norte 0 948.4 0 47
2019-08-01 11:00:00 27.2 6 Norte 12 Norte 0 948.5 0.6 48
2019-08-01 10:00:00 25.2 5 Este 12 Este 0 948.4 0.6 55
2019-08-01 09:00:00 23.2 3 Este 10 Noroeste 0 948.4 0.8 59
2019-08-01 08:00:00 21.7 4 Oeste 10 Noroeste 0 947.9 0.3 65
2019-08-01 07:00:00 22.5 6 Noroeste 18 Sur 0 947.8 0.4 56
2019-08-01 06:00:00 22.4 8 Sur 11 Sur 0 947.6 0.3 56
2019-08-01 05:00:00 23.2 3 Oeste 10 Noroeste 0 947.6 0.5 54
2019-08-01 04:00:00 24.8 4 Sur 15 Oeste 0 947.4 0.6 51
2019-08-01 03:00:00 25.1 4 Oeste 10 Sur 0 947.3 0.6 47
2019-08-01 02:00:00 26.3 2 Noroeste 18 Sur 0 947.1 0.8 45
2019-08-01 01:00:00 27.3 4 Sudeste 14 Sur 0 946.8 1.3 43
2019-08-01 00:00:00 28.9 7 Sur 24 Oeste 0 946.7 2 36
2019-07-31 23:00:00 29.9 14 Sudoeste 31 Oeste 0 946.3 2 33
2019-07-31 22:00:00 30 17 Oeste 31 Oeste 0 945.5 1.2 37
2019-07-31 21:00:00 33 10 Noroeste 20 Norte 0 944.7 -0.1 24
2019-07-31 20:00:00 35.3 7 Noroeste 17 Norte 0 944.3 -1.1 21
2019-07-31 19:00:00 35.7 7 Norte 18 Noroeste 0 944.3 -1.7 21
2019-07-31 18:00:00 35.7 9 Noroeste 23 Norte 0 944.8 -1.6 21
2019-07-31 17:00:00 35.7 6 Norte 21 Norte 0 945.4 -1.6 20
2019-07-31 16:00:00 34.9 6 Nordeste 22 Este 0 946 -1.7 21
2019-07-31 15:00:00 34.7 6 Nordeste 19 Norte 0 946.4 -1.6 21
2019-07-31 14:00:00 32.9 6 Nordeste 16 Norte 0 947 -0.9 23
2019-07-31 13:00:00 31.9 6 Norte 17 Norte 0 947.7 0.1 23
2019-07-31 12:00:00 31 8 Norte 16 Norte 0 948 0.5 23
2019-07-31 11:00:00 29.4 5 Este 15 Este 0 947.9 0.7 30
2019-07-31 10:00:00 27.6 4 Nordeste 11 Nordeste 0 947.6 0.9 32
2019-07-31 09:00:00 25.4 6 Norte 10 Sudeste 0 947.5 0.9 42
2019-07-31 08:00:00 24.5 8 Sudeste 17 Sudeste 0 947.2 0.6 45
2019-07-31 07:00:00 24.5 6 Sudoeste 13 Sudoeste 0 946.7 -0.2 31
2019-07-31 06:00:00 25.4 10 Sudoeste 29 Sur 0 946.6 -0.3 41
2019-07-31 05:00:00 26.2 17 Sudeste 30 Sudeste 0 946.6 -0.7 40
2019-07-31 04:00:00 26.7 16 Sudeste 32 Sudeste 0 946.9 -0.5 36
2019-07-31 03:00:00 26.6 6 Sur 13 Sur 0 946.9 -0.1 22
2019-07-31 02:00:00 26.7 9 Sur 13 Sur 0 947.3 0.4 22
2019-07-31 01:00:00 27.5 6 Sur 15 Sudoeste 0 947.4 1.1 22
2019-07-31 00:00:00 28.9 9 Oeste 14 Oeste 0 947 1.3 19
2019-07-30 23:00:00 30 9 Sudoeste 17 Sudoeste 0 946.9 1.4 18
2019-07-30 22:00:00 30.1 10 Oeste 18 Noroeste 0 946.3 0.9 20
2019-07-30 21:00:00 32.4 9 Noroeste 26 Noroeste 0 945.7 -0.1 18
2019-07-30 20:00:00 34.1 13 Noroeste 26 Noroeste 0 945.5 -0.7 17
2019-07-30 19:00:00 35.1 11 Noroeste 25 Noroeste 0 945.4 -1.4 17
2019-07-30 18:00:00 35 7 Norte 26 Noroeste 0 945.8 -1.6 18
2019-07-30 17:00:00 34.9 11 Noroeste 24 Norte 0 946.2 -1.9 20
2019-07-30 16:00:00 34.2 6 Norte 24 Noroeste 0 946.8 -1.7 21
2019-07-30 15:00:00 33.2 10 Noroeste 20 Noroeste 0 947.4 -1.4 22
2019-07-30 14:00:00 32 9 Norte 19 Norte 0 948.1 -0.9 24
2019-07-30 13:00:00 30.9 5 Nordeste 15 Norte 0 948.5 -0.5 25
2019-07-30 12:00:00 29.1 7 Norte 14 Norte 0 948.8 0 27
2019-07-30 11:00:00 26.9 5 Nordeste 9 Este 0 949 0.6 30
2019-07-30 10:00:00 24.1 3 Norte 7 Norte 0 949 0.9 36
2019-07-30 09:00:00 22.5 3 Norte 6 Noroeste 0 948.8 0.9 43
2019-07-30 08:00:00 21.6 3 Sudeste 7 Sur 0 948.4 0.6 45
2019-07-30 07:00:00 21 4 Sur 7 Sur 0 948.1 0.3 44
2019-07-30 06:00:00 21.8 3 Sur 10 Sudoeste 0 947.9 0.2 42
2019-07-30 05:00:00 23 5 Sudoeste 13 Oeste 0 947.8 0.1 38
2019-07-30 04:00:00 23.6 4 Sudoeste 11 Oeste 0 947.8 -0.1 37
2019-07-30 03:00:00 24.8 6 Oeste 17 Oeste 0 947.7 0.2 35
2019-07-30 02:00:00 25.8 11 Oeste 29 Oeste 0 947.7 0.7 35
2019-07-30 01:00:00 26.6 17 Oeste 36 Oeste 0 947.9 1.6 39
2019-07-30 00:00:00 28 18 Oeste 31 Oeste 0 947.5 1.6 28
2019-07-29 23:00:00 28.7 15 Oeste 25 Oeste 0 947 1.4 24
2019-07-29 22:00:00 28.9 10 Oeste 18 Oeste 0 946.3 0.8 25
2019-07-29 21:00:00 30.9 8 Oeste 26 Noroeste 0 945.9 0.1 23
2019-07-29 20:00:00 32.6 11 Noroeste 23 Noroeste 0 945.6 -0.4 22
2019-07-29 19:00:00 33 15 Noroeste 28 Noroeste 0 945.5 -0.9 23
2019-07-29 18:00:00 33.1 10 Noroeste 32 Norte 0 945.8 -0.9 23
2019-07-29 17:00:00 32.5 15 Noroeste 37 Norte 0 946 -1.1 27
2019-07-29 16:00:00 32 17 Noroeste 29 Norte 0 946.4 -1.2 29
2019-07-29 15:00:00 31.1 14 Noroeste 27 Noroeste 0 946.7 -1 31
2019-07-29 14:00:00 30.6 10 Norte 26 Norte 0 947.1 -0.7 34
2019-07-29 13:00:00 28.7 9 Noroeste 19 Norte 0 947.6 -0.1 39
2019-07-29 12:00:00 27.3 7 Nordeste 16 Norte 0 947.7 0.3 46
2019-07-29 11:00:00 24.4 5 Norte 15 Norte 0 947.8 0.7 53
2019-07-29 10:00:00 22.4 5 Norte 12 Norte 0 947.7 1.2 59
2019-07-29 09:00:00 21.3 4 Este 10 Este 0 947.4 1.4 61
2019-07-29 08:00:00 20.3 4 Sudeste 11 Sudeste 0 947.1 1.1 66
2019-07-29 07:00:00 19.8 3 Sudoeste 9 Oeste 0 946.5 0.6 67
2019-07-29 06:00:00 20.6 2 Sudoeste 9 Sur 0 946 0 62
2019-07-29 05:00:00 21.4 5 Sur 13 Norte 0 946 0.2 58
2019-07-29 04:00:00 21.5 5 Sur 8 Sur 0 945.9 0.2 58
2019-07-29 03:00:00 22.4 4 Sur 9 Sudeste 0 946 0.5 49
2019-07-29 02:00:00 23.7 4 Sur 18 Noroeste 0 945.8 0.5 44
2019-07-29 01:00:00 25.2 10 Oeste 30 Oeste 0 945.7 1 39
2019-07-29 00:00:00 26.1 13 Oeste 25 Oeste 0 945.5 1.4 38
2019-07-28 23:00:00 27 11 Sudoeste 26 Sudoeste 0 945.3 1.8 38
2019-07-28 22:00:00 27.1 12 Oeste 28 Noroeste 0 944.7 1.5 38
2019-07-28 21:00:00 28.8 13 Noroeste 29 Noroeste 0 944.1 0.8 30
2019-07-28 20:00:00 30.3 17 Noroeste 35 Noroeste 0 943.5 -0.2 32
2019-07-28 19:00:00 31.2 14 Noroeste 33 Noroeste 0 943.2 -1 33
2019-07-28 18:00:00 31.2 14 Noroeste 30 Noroeste 0 943.3 -1.3 34
2019-07-28 17:00:00 30.6 8 Noroeste 26 Noroeste 0 943.7 -1.4 37
2019-07-28 16:00:00 30.7 5 Oeste 26 Norte 0 944.2 -1.4 38
2019-07-28 15:00:00 29.2 7 Nordeste 21 Norte 0 944.6 -1.4 43
2019-07-28 14:00:00 28.4 9 Norte 20 Nordeste 0 945.1 -1.1 45
2019-07-28 13:00:00 26.9 7 Nordeste 16 Este 0 945.6 -0.8 50
2019-07-28 12:00:00 24.8 6 Nordeste 13 Nordeste 0 946 -0.5 57
2019-07-28 11:00:00 23.6 6 Este 14 Este 0 946.2 -0.1 62
2019-07-28 10:00:00 21.6 5 Este 12 Este 0 946.4 0.4 73
2019-07-28 09:00:00 19.9 8 Norte 12 Norte 0 946.5 0.8 80
2019-07-28 08:00:00 19.4 3 Nordeste 8 Este 0 946.3 0.8 83
2019-07-28 07:00:00 19.2 4 Este 11 Sudeste 0 946 0.4 85
2019-07-28 06:00:00 19.6 6 Oeste 11 Oeste 0 945.7 -0.1 82
2019-07-28 05:00:00 19.7 5 Oeste 9 Sudeste 0 945.5 -0.7 77
2019-07-28 04:00:00 19.9 3 Sur 7 Sudoeste 0 945.6 -0.9 75
2019-07-28 03:00:00 20.8 2 Oeste 11 Este 0 945.8 -0.6 71
2019-07-28 02:00:00 21.8 8 Este 13 Sudoeste 0 946.2 0.2 68
2019-07-28 01:00:00 21.8 6 Sur 27 Oeste 0 946.5 1 68
2019-07-28 00:00:00 21.7 13 Oeste 39 Oeste 0 946.4 1.4 68
2019-07-27 23:00:00 22 17 Noroeste 34 Oeste 0 946 1.2 65
2019-07-26 12:00:00 26 18 Noroeste 31 Noroeste 0 948.5 0 54
2019-07-26 11:00:00 26.5 6 Sudeste 13 Sudeste 0 948.3 0.1 45
2019-07-26 10:00:00 24.4 3 Nordeste 9 Nordeste 0 948.7 0.6 48
2019-07-26 09:00:00 22.7 3 Norte 8 Nordeste 0 948.5 0.5 53
2019-07-26 08:00:00 21.9 3 Este 9 Nordeste 0 948.2 0.2 53
2019-07-26 07:00:00 22 5 Sudeste 12 Este 0 948.1 0 49
2019-07-26 06:00:00 23.7 5 Sur 22 Sur 0 948 -0.2 45
2019-07-26 05:00:00 24.5 11 Sur 34 Sudoeste 0 948 -0.6 44
2019-07-26 04:00:00 24.1 5 Oeste 21 Oeste 0 948.1 -0.5 48
2019-07-26 03:00:00 25.3 4 Sur 17 Sudoeste 0 948.2 -0.3 46
2019-07-26 02:00:00 27.2 3 Sur 23 Sudoeste 0 948.6 0.2 38
2019-07-26 01:00:00 28.2 13 Oeste 38 Oeste 0 948.6 1.1 29
2019-07-26 00:00:00 28.5 15 Oeste 41 Sudoeste 0 948.5 1.7 31